sensor_id;sensor_type;location;lat;lon;timestamp;P1;durP1;ratioP1;P2;durP2;ratioP2
37983;SDS011;64625;50.882;4.376;2023-05-27T00:00:06;27.75;;;4.82;;
37983;SDS011;64625;50.882;4.376;2023-05-27T00:02:33;21.75;;;5.30;;
37983;SDS011;64625;50.882;4.376;2023-05-27T00:04:59;23.35;;;5.28;;
37983;SDS011;64625;50.882;4.376;2023-05-27T00:07:26;19.77;;;5.05;;
37983;SDS011;64625;50.882;4.376;2023-05-27T00:09:56;28.95;;;5.60;;
37983;SDS011;64625;50.882;4.376;2023-05-27T00:12:22;27.23;;;5.70;;
37983;SDS011;64625;50.882;4.376;2023-05-27T00:14:48;23.27;;;5.78;;
37983;SDS011;64625;50.882;4.376;2023-05-27T00:17:13;16.92;;;4.32;;
37983;SDS011;64625;50.882;4.376;2023-05-27T00:19:43;20.63;;;6.60;;
37983;SDS011;64625;50.882;4.376;2023-05-27T00:22:10;19.58;;;5.47;;
37983;SDS011;64625;50.882;4.376;2023-05-27T00:24:36;24.55;;;4.60;;
37983;SDS011;64625;50.882;4.376;2023-05-27T00:27:07;17.77;;;6.05;;
37983;SDS011;64625;50.882;4.376;2023-05-27T00:29:34;21.60;;;5.63;;
37983;SDS011;64625;50.882;4.376;2023-05-27T00:32:01;18.58;;;5.78;;
37983;SDS011;64625;50.882;4.376;2023-05-27T00:34:33;30.63;;;8.38;;
37983;SDS011;64625;50.882;4.376;2023-05-27T00:36:59;15.60;;;4.65;;
37983;SDS011;64625;50.882;4.376;2023-05-27T00:39:25;27.63;;;6.97;;
37983;SDS011;64625;50.882;4.376;2023-05-27T00:41:51;21.92;;;5.72;;
37983;SDS011;64625;50.882;4.376;2023-05-27T00:44:23;24.83;;;6.38;;
37983;SDS011;64625;50.882;4.376;2023-05-27T00:46:48;23.35;;;5.72;;
37983;SDS011;64625;50.882;4.376;2023-05-27T00:49:14;24.65;;;5.25;;
37983;SDS011;64625;50.882;4.376;2023-05-27T00:51:41;19.42;;;5.50;;
37983;SDS011;64625;50.882;4.376;2023-05-27T00:54:08;28.92;;;9.05;;
37983;SDS011;64625;50.882;4.376;2023-05-27T00:56:36;20.50;;;4.70;;
37983;SDS011;64625;50.882;4.376;2023-05-27T00:59:02;25.23;;;6.03;;
37983;SDS011;64625;50.882;4.376;2023-05-27T01:01:28;17.33;;;4.97;;
37983;SDS011;64625;50.882;4.376;2023-05-27T01:03:54;30.77;;;6.18;;
37983;SDS011;64625;50.882;4.376;2023-05-27T01:06:30;18.02;;;5.70;;
37983;SDS011;64625;50.882;4.376;2023-05-27T01:12:07;29.02;;;6.40;;
37983;SDS011;64625;50.882;4.376;2023-05-27T01:14:43;26.73;;;5.75;;
37983;SDS011;64625;50.882;4.376;2023-05-27T01:17:12;29.10;;;6.25;;
37983;SDS011;64625;50.882;4.376;2023-05-27T01:19:41;27.48;;;6.10;;
37983;SDS011;64625;50.882;4.376;2023-05-27T01:22:11;20.83;;;5.40;;
37983;SDS011;64625;50.882;4.376;2023-05-27T01:24:38;26.33;;;4.63;;
37983;SDS011;64625;50.882;4.376;2023-05-27T01:27:06;22.67;;;6.18;;
37983;SDS011;64625;50.882;4.376;2023-05-27T01:29:33;30.70;;;7.70;;
37983;SDS011;64625;50.882;4.376;2023-05-27T01:32:44;20.17;;;5.25;;
37983;SDS011;64625;50.882;4.376;2023-05-27T01:37:23;21.80;;;4.75;;
37983;SDS011;64625;50.882;4.376;2023-05-27T01:39:52;14.48;;;4.75;;
37983;SDS011;64625;50.882;4.376;2023-05-27T01:42:19;21.95;;;5.20;;
37983;SDS011;64625;50.882;4.376;2023-05-27T01:44:45;20.38;;;6.15;;
37983;SDS011;64625;50.882;4.376;2023-05-27T01:47:12;23.08;;;6.43;;
37983;SDS011;64625;50.882;4.376;2023-05-27T01:49:38;22.98;;;5.10;;
37983;SDS011;64625;50.882;4.376;2023-05-27T01:52:05;24.08;;;6.10;;
37983;SDS011;64625;50.882;4.376;2023-05-27T01:54:31;33.45;;;5.80;;
37983;SDS011;64625;50.882;4.376;2023-05-27T01:57:00;27.02;;;6.63;;
37983;SDS011;64625;50.882;4.376;2023-05-27T01:59:26;21.42;;;5.00;;
37983;SDS011;64625;50.882;4.376;2023-05-27T02:01:52;21.00;;;5.25;;
37983;SDS011;64625;50.882;4.376;2023-05-27T02:04:18;45.17;;;7.70;;
37983;SDS011;64625;50.882;4.376;2023-05-27T02:06:44;25.50;;;5.55;;
37983;SDS011;64625;50.882;4.376;2023-05-27T02:09:10;19.40;;;5.35;;
37983;SDS011;64625;50.882;4.376;2023-05-27T02:11:38;28.15;;;6.57;;
37983;SDS011;64625;50.882;4.376;2023-05-27T02:14:04;14.73;;;4.70;;
37983;SDS011;64625;50.882;4.376;2023-05-27T02:16:32;22.92;;;5.88;;
37983;SDS011;64625;50.882;4.376;2023-05-27T02:19:00;22.85;;;6.70;;
37983;SDS011;64625;50.882;4.376;2023-05-27T02:21:26;25.63;;;6.03;;
37983;SDS011;64625;50.882;4.376;2023-05-27T02:23:52;23.65;;;5.97;;
37983;SDS011;64625;50.882;4.376;2023-05-27T02:26:18;25.10;;;5.75;;
37983;SDS011;64625;50.882;4.376;2023-05-27T02:28:44;22.67;;;6.25;;
37983;SDS011;64625;50.882;4.376;2023-05-27T02:31:10;28.92;;;6.95;;
37983;SDS011;64625;50.882;4.376;2023-05-27T02:33:36;18.08;;;6.13;;
37983;SDS011;64625;50.882;4.376;2023-05-27T02:36:02;24.88;;;5.35;;
37983;SDS011;64625;50.882;4.376;2023-05-27T02:38:29;30.30;;;6.53;;
37983;SDS011;64625;50.882;4.376;2023-05-27T02:40:55;23.40;;;7.00;;
37983;SDS011;64625;50.882;4.376;2023-05-27T02:43:21;31.65;;;7.30;;
37983;SDS011;64625;50.882;4.376;2023-05-27T02:45:47;17.08;;;5.43;;
37983;SDS011;64625;50.882;4.376;2023-05-27T02:48:14;19.23;;;4.57;;
37983;SDS011;64625;50.882;4.376;2023-05-27T02:50:40;29.02;;;5.47;;
37983;SDS011;64625;50.882;4.376;2023-05-27T02:53:06;27.00;;;6.03;;
37983;SDS011;64625;50.882;4.376;2023-05-27T02:55:31;25.98;;;6.82;;
37983;SDS011;64625;50.882;4.376;2023-05-27T02:57:58;19.30;;;4.68;;
37983;SDS011;64625;50.882;4.376;2023-05-27T03:00:23;22.73;;;6.07;;
37983;SDS011;64625;50.882;4.376;2023-05-27T03:02:50;26.67;;;7.55;;
37983;SDS011;64625;50.882;4.376;2023-05-27T03:05:16;22.27;;;6.32;;
37983;SDS011;64625;50.882;4.376;2023-05-27T03:07:43;27.05;;;5.82;;
37983;SDS011;64625;50.882;4.376;2023-05-27T03:10:09;30.92;;;7.00;;
37983;SDS011;64625;50.882;4.376;2023-05-27T03:12:35;18.75;;;5.82;;
37983;SDS011;64625;50.882;4.376;2023-05-27T03:15:01;23.67;;;5.18;;
37983;SDS011;64625;50.882;4.376;2023-05-27T03:17:27;30.77;;;6.13;;
37983;SDS011;64625;50.882;4.376;2023-05-27T03:19:53;27.83;;;5.85;;
37983;SDS011;64625;50.882;4.376;2023-05-27T03:22:19;30.95;;;6.90;;
37983;SDS011;64625;50.882;4.376;2023-05-27T03:24:45;20.63;;;6.13;;
37983;SDS011;64625;50.882;4.376;2023-05-27T03:27:11;20.10;;;6.10;;
37983;SDS011;64625;50.882;4.376;2023-05-27T03:29:38;19.45;;;6.18;;
37983;SDS011;64625;50.882;4.376;2023-05-27T03:32:05;22.00;;;5.40;;
37983;SDS011;64625;50.882;4.376;2023-05-27T03:34:35;23.80;;;7.50;;
37983;SDS011;64625;50.882;4.376;2023-05-27T03:37:01;21.88;;;5.28;;
37983;SDS011;64625;50.882;4.376;2023-05-27T03:39:27;18.45;;;4.65;;
37983;SDS011;64625;50.882;4.376;2023-05-27T03:41:53;31.42;;;5.93;;
37983;SDS011;64625;50.882;4.376;2023-05-27T03:44:19;26.90;;;7.15;;
37983;SDS011;64625;50.882;4.376;2023-05-27T03:46:45;19.10;;;5.65;;
37983;SDS011;64625;50.882;4.376;2023-05-27T03:49:11;22.25;;;5.90;;
37983;SDS011;64625;50.882;4.376;2023-05-27T03:51:37;26.70;;;7.45;;
37983;SDS011;64625;50.882;4.376;2023-05-27T03:54:03;19.45;;;5.28;;
37983;SDS011;64625;50.882;4.376;2023-05-27T03:56:29;20.73;;;5.88;;
37983;SDS011;64625;50.882;4.376;2023-05-27T03:58:55;17.63;;;5.68;;
37983;SDS011;64625;50.882;4.376;2023-05-27T04:01:21;22.15;;;5.40;;
37983;SDS011;64625;50.882;4.376;2023-05-27T04:03:48;25.88;;;6.45;;
37983;SDS011;64625;50.882;4.376;2023-05-27T04:06:14;23.65;;;5.50;;
37983;SDS011;64625;50.882;4.376;2023-05-27T04:08:40;33.10;;;6.10;;
37983;SDS011;64625;50.882;4.376;2023-05-27T04:11:09;25.02;;;5.63;;
37983;SDS011;64625;50.882;4.376;2023-05-27T04:13:37;21.83;;;7.25;;
37983;SDS011;64625;50.882;4.376;2023-05-27T04:16:03;22.10;;;4.93;;
37983;SDS011;64625;50.882;4.376;2023-05-27T04:18:30;27.00;;;6.18;;
37983;SDS011;64625;50.882;4.376;2023-05-27T04:20:56;20.63;;;6.13;;
37983;SDS011;64625;50.882;4.376;2023-05-27T04:23:23;19.85;;;6.07;;
37983;SDS011;64625;50.882;4.376;2023-05-27T04:25:49;23.38;;;5.32;;
37983;SDS011;64625;50.882;4.376;2023-05-27T04:28:16;22.60;;;6.60;;
37983;SDS011;64625;50.882;4.376;2023-05-27T04:30:42;28.23;;;7.82;;
37983;SDS011;64625;50.882;4.376;2023-05-27T04:33:11;16.65;;;6.82;;
37983;SDS011;64625;50.882;4.376;2023-05-27T04:35:39;32.97;;;7.10;;
37983;SDS011;64625;50.882;4.376;2023-05-27T04:38:12;23.00;;;6.63;;
37983;SDS011;64625;50.882;4.376;2023-05-27T04:40:48;21.02;;;6.97;;
37983;SDS011;64625;50.882;4.376;2023-05-27T04:43:22;23.13;;;7.60;;
37983;SDS011;64625;50.882;4.376;2023-05-27T04:45:48;28.63;;;9.25;;
37983;SDS011;64625;50.882;4.376;2023-05-27T04:48:15;38.53;;;7.28;;
37983;SDS011;64625;50.882;4.376;2023-05-27T04:50:41;24.65;;;6.47;;
37983;SDS011;64625;50.882;4.376;2023-05-27T04:53:08;20.70;;;6.85;;
37983;SDS011;64625;50.882;4.376;2023-05-27T04:55:34;24.58;;;6.88;;
37983;SDS011;64625;50.882;4.376;2023-05-27T04:58:04;38.22;;;6.88;;
37983;SDS011;64625;50.882;4.376;2023-05-27T05:00:30;24.27;;;6.68;;
37983;SDS011;64625;50.882;4.376;2023-05-27T05:03:26;22.13;;;6.15;;
37983;SDS011;64625;50.882;4.376;2023-05-27T05:06:02;27.20;;;6.43;;
37983;SDS011;64625;50.882;4.376;2023-05-27T05:08:28;19.48;;;5.50;;
37983;SDS011;64625;50.882;4.376;2023-05-27T05:10:55;22.08;;;5.85;;
37983;SDS011;64625;50.882;4.376;2023-05-27T05:13:21;24.60;;;6.28;;
37983;SDS011;64625;50.882;4.376;2023-05-27T05:15:48;24.15;;;5.97;;
37983;SDS011;64625;50.882;4.376;2023-05-27T05:18:14;32.53;;;8.50;;
37983;SDS011;64625;50.882;4.376;2023-05-27T05:20:40;23.58;;;7.65;;
37983;SDS011;64625;50.882;4.376;2023-05-27T05:23:07;23.73;;;7.70;;
37983;SDS011;64625;50.882;4.376;2023-05-27T05:25:34;26.88;;;9.65;;
37983;SDS011;64625;50.882;4.376;2023-05-27T05:28:03;24.15;;;6.75;;
37983;SDS011;64625;50.882;4.376;2023-05-27T05:30:32;25.42;;;8.63;;
37983;SDS011;64625;50.882;4.376;2023-05-27T05:32:59;39.78;;;8.73;;
37983;SDS011;64625;50.882;4.376;2023-05-27T05:35:25;27.33;;;8.77;;
37983;SDS011;64625;50.882;4.376;2023-05-27T05:37:51;28.95;;;7.50;;
37983;SDS011;64625;50.882;4.376;2023-05-27T05:40:17;29.67;;;9.10;;
37983;SDS011;64625;50.882;4.376;2023-05-27T05:42:43;35.65;;;9.65;;
37983;SDS011;64625;50.882;4.376;2023-05-27T05:45:11;20.35;;;8.25;;
37983;SDS011;64625;50.882;4.376;2023-05-27T05:47:37;22.15;;;9.13;;
37983;SDS011;64625;50.882;4.376;2023-05-27T05:50:03;33.47;;;8.73;;
37983;SDS011;64625;50.882;4.376;2023-05-27T05:52:29;23.10;;;6.78;;
37983;SDS011;64625;50.882;4.376;2023-05-27T05:54:55;26.42;;;7.70;;
37983;SDS011;64625;50.882;4.376;2023-05-27T05:57:21;19.90;;;6.15;;
37983;SDS011;64625;50.882;4.376;2023-05-27T05:59:47;42.47;;;10.77;;
37983;SDS011;64625;50.882;4.376;2023-05-27T06:02:13;38.40;;;8.80;;
37983;SDS011;64625;50.882;4.376;2023-05-27T06:04:39;19.95;;;6.80;;
37983;SDS011;64625;50.882;4.376;2023-05-27T06:07:05;38.80;;;9.85;;
37983;SDS011;64625;50.882;4.376;2023-05-27T06:09:31;32.42;;;7.95;;
37983;SDS011;64625;50.882;4.376;2023-05-27T06:11:58;35.08;;;9.70;;
37983;SDS011;64625;50.882;4.376;2023-05-27T06:14:24;32.20;;;7.15;;
37983;SDS011;64625;50.882;4.376;2023-05-27T06:16:50;25.45;;;7.53;;
37983;SDS011;64625;50.882;4.376;2023-05-27T06:19:16;62.42;;;12.23;;
37983;SDS011;64625;50.882;4.376;2023-05-27T06:21:42;28.60;;;8.68;;
37983;SDS011;64625;50.882;4.376;2023-05-27T06:24:08;15.88;;;6.75;;
37983;SDS011;64625;50.882;4.376;2023-05-27T06:26:37;36.22;;;9.02;;
37983;SDS011;64625;50.882;4.376;2023-05-27T06:29:03;33.22;;;8.55;;
37983;SDS011;64625;50.882;4.376;2023-05-27T06:31:29;23.65;;;7.35;;
37983;SDS011;64625;50.882;4.376;2023-05-27T06:33:55;27.25;;;8.63;;
37983;SDS011;64625;50.882;4.376;2023-05-27T06:36:21;24.05;;;7.30;;
37983;SDS011;64625;50.882;4.376;2023-05-27T06:38:47;27.00;;;8.90;;
37983;SDS011;64625;50.882;4.376;2023-05-27T06:41:13;21.42;;;7.25;;
37983;SDS011;64625;50.882;4.376;2023-05-27T06:43:39;22.85;;;7.07;;
37983;SDS011;64625;50.882;4.376;2023-05-27T06:46:06;21.75;;;7.82;;
37983;SDS011;64625;50.882;4.376;2023-05-27T06:48:32;22.38;;;7.75;;
37983;SDS011;64625;50.882;4.376;2023-05-27T06:50:59;32.28;;;9.55;;
37983;SDS011;64625;50.882;4.376;2023-05-27T06:53:25;25.33;;;8.77;;
37983;SDS011;64625;50.882;4.376;2023-05-27T06:55:51;19.35;;;7.60;;
37983;SDS011;64625;50.882;4.376;2023-05-27T06:58:17;25.48;;;8.93;;
37983;SDS011;64625;50.882;4.376;2023-05-27T07:00:43;25.52;;;10.35;;
37983;SDS011;64625;50.882;4.376;2023-05-27T07:03:10;30.40;;;9.18;;
37983;SDS011;64625;50.882;4.376;2023-05-27T07:05:36;26.48;;;8.88;;
37983;SDS011;64625;50.882;4.376;2023-05-27T07:08:02;29.90;;;8.70;;
37983;SDS011;64625;50.882;4.376;2023-05-27T07:10:28;26.38;;;10.10;;
37983;SDS011;64625;50.882;4.376;2023-05-27T07:12:54;33.25;;;11.73;;
37983;SDS011;64625;50.882;4.376;2023-05-27T07:15:20;35.28;;;9.43;;
37983;SDS011;64625;50.882;4.376;2023-05-27T07:17:46;36.33;;;9.27;;
37983;SDS011;64625;50.882;4.376;2023-05-27T07:20:12;32.25;;;8.07;;
37983;SDS011;64625;50.882;4.376;2023-05-27T07:22:38;31.90;;;8.93;;
37983;SDS011;64625;50.882;4.376;2023-05-27T07:25:04;23.20;;;7.68;;
37983;SDS011;64625;50.882;4.376;2023-05-27T07:27:30;23.30;;;8.60;;
37983;SDS011;64625;50.882;4.376;2023-05-27T07:29:57;27.00;;;8.82;;
37983;SDS011;64625;50.882;4.376;2023-05-27T07:32:23;32.22;;;9.20;;
37983;SDS011;64625;50.882;4.376;2023-05-27T07:34:50;25.25;;;8.23;;
37983;SDS011;64625;50.882;4.376;2023-05-27T07:37:16;25.65;;;7.13;;
37983;SDS011;64625;50.882;4.376;2023-05-27T07:39:42;28.60;;;7.57;;
37983;SDS011;64625;50.882;4.376;2023-05-27T07:42:08;29.85;;;8.05;;
37983;SDS011;64625;50.882;4.376;2023-05-27T07:44:34;33.42;;;8.52;;
37983;SDS011;64625;50.882;4.376;2023-05-27T07:47:00;30.58;;;7.85;;
37983;SDS011;64625;50.882;4.376;2023-05-27T07:49:27;23.45;;;7.60;;
37983;SDS011;64625;50.882;4.376;2023-05-27T07:51:53;27.63;;;8.65;;
37983;SDS011;64625;50.882;4.376;2023-05-27T07:54:20;19.30;;;7.32;;
37983;SDS011;64625;50.882;4.376;2023-05-27T07:56:46;21.65;;;7.45;;
37983;SDS011;64625;50.882;4.376;2023-05-27T07:59:12;19.00;;;7.32;;
37983;SDS011;64625;50.882;4.376;2023-05-27T08:01:38;25.25;;;8.35;;
37983;SDS011;64625;50.882;4.376;2023-05-27T08:04:04;19.05;;;8.07;;
37983;SDS011;64625;50.882;4.376;2023-05-27T08:06:30;29.63;;;8.88;;
37983;SDS011;64625;50.882;4.376;2023-05-27T08:08:57;25.20;;;8.10;;
37983;SDS011;64625;50.882;4.376;2023-05-27T08:11:23;23.48;;;7.70;;
37983;SDS011;64625;50.882;4.376;2023-05-27T08:13:49;35.42;;;10.95;;
37983;SDS011;64625;50.882;4.376;2023-05-27T08:16:15;33.88;;;7.45;;
37983;SDS011;64625;50.882;4.376;2023-05-27T08:18:41;20.67;;;8.50;;
37983;SDS011;64625;50.882;4.376;2023-05-27T08:21:06;27.33;;;7.90;;
37983;SDS011;64625;50.882;4.376;2023-05-27T08:23:32;23.75;;;7.18;;
37983;SDS011;64625;50.882;4.376;2023-05-27T08:25:59;29.80;;;7.75;;
37983;SDS011;64625;50.882;4.376;2023-05-27T08:28:25;23.95;;;7.78;;
37983;SDS011;64625;50.882;4.376;2023-05-27T08:30:51;29.92;;;7.75;;
37983;SDS011;64625;50.882;4.376;2023-05-27T08:33:17;25.23;;;6.35;;
37983;SDS011;64625;50.882;4.376;2023-05-27T08:35:43;32.72;;;6.70;;
37983;SDS011;64625;50.882;4.376;2023-05-27T08:38:11;45.22;;;9.50;;
37983;SDS011;64625;50.882;4.376;2023-05-27T08:40:38;23.75;;;8.25;;
37983;SDS011;64625;50.882;4.376;2023-05-27T08:43:05;26.15;;;8.43;;
37983;SDS011;64625;50.882;4.376;2023-05-27T08:45:32;19.30;;;6.97;;
37983;SDS011;64625;50.882;4.376;2023-05-27T08:47:58;24.52;;;6.85;;
37983;SDS011;64625;50.882;4.376;2023-05-27T08:50:25;34.35;;;8.38;;
37983;SDS011;64625;50.882;4.376;2023-05-27T08:52:55;29.33;;;7.82;;
37983;SDS011;64625;50.882;4.376;2023-05-27T08:55:21;19.20;;;6.80;;
37983;SDS011;64625;50.882;4.376;2023-05-27T08:57:51;25.73;;;6.90;;
37983;SDS011;64625;50.882;4.376;2023-05-27T09:00:21;25.30;;;6.95;;
37983;SDS011;64625;50.882;4.376;2023-05-27T09:02:48;15.57;;;6.05;;
37983;SDS011;64625;50.882;4.376;2023-05-27T09:05:15;27.25;;;7.22;;
37983;SDS011;64625;50.882;4.376;2023-05-27T09:07:43;28.55;;;8.85;;
37983;SDS011;64625;50.882;4.376;2023-05-27T09:10:10;15.48;;;5.95;;
37983;SDS011;64625;50.882;4.376;2023-05-27T09:12:36;22.80;;;6.82;;
37983;SDS011;64625;50.882;4.376;2023-05-27T09:15:03;35.03;;;6.80;;
37983;SDS011;64625;50.882;4.376;2023-05-27T09:17:30;26.73;;;8.40;;
37983;SDS011;64625;50.882;4.376;2023-05-27T09:19:56;30.88;;;7.57;;
37983;SDS011;64625;50.882;4.376;2023-05-27T09:22:27;26.58;;;8.77;;
37983;SDS011;64625;50.882;4.376;2023-05-27T09:24:55;20.02;;;7.05;;
37983;SDS011;64625;50.882;4.376;2023-05-27T09:27:28;25.35;;;6.85;;
37983;SDS011;64625;50.882;4.376;2023-05-27T09:29:57;24.80;;;6.70;;
37983;SDS011;64625;50.882;4.376;2023-05-27T09:32:32;18.73;;;6.25;;
37983;SDS011;64625;50.882;4.376;2023-05-27T09:34:59;19.30;;;6.00;;
37983;SDS011;64625;50.882;4.376;2023-05-27T09:37:27;31.25;;;6.85;;
37983;SDS011;64625;50.882;4.376;2023-05-27T09:39:58;27.10;;;7.60;;
37983;SDS011;64625;50.882;4.376;2023-05-27T09:42:24;32.70;;;7.45;;
37983;SDS011;64625;50.882;4.376;2023-05-27T09:44:51;20.85;;;6.13;;
37983;SDS011;64625;50.882;4.376;2023-05-27T09:47:20;26.25;;;6.88;;
37983;SDS011;64625;50.882;4.376;2023-05-27T09:49:48;17.65;;;5.53;;
37983;SDS011;64625;50.882;4.376;2023-05-27T09:52:18;27.13;;;6.65;;
37983;SDS011;64625;50.882;4.376;2023-05-27T09:54:46;32.33;;;6.70;;
37983;SDS011;64625;50.882;4.376;2023-05-27T09:57:14;25.00;;;6.57;;
37983;SDS011;64625;50.882;4.376;2023-05-27T09:59:41;22.30;;;6.55;;
37983;SDS011;64625;50.882;4.376;2023-05-27T10:02:09;24.42;;;5.80;;
37983;SDS011;64625;50.882;4.376;2023-05-27T10:04:37;33.95;;;6.78;;
37983;SDS011;64625;50.882;4.376;2023-05-27T10:07:03;21.50;;;6.82;;
37983;SDS011;64625;50.882;4.376;2023-05-27T10:09:30;18.63;;;6.15;;
37983;SDS011;64625;50.882;4.376;2023-05-27T10:11:56;23.65;;;6.32;;
37983;SDS011;64625;50.882;4.376;2023-05-27T10:14:22;19.55;;;6.72;;
37983;SDS011;64625;50.882;4.376;2023-05-27T10:16:53;27.40;;;6.75;;
37983;SDS011;64625;50.882;4.376;2023-05-27T10:19:21;25.15;;;7.50;;
37983;SDS011;64625;50.882;4.376;2023-05-27T10:21:47;19.35;;;7.03;;
37983;SDS011;64625;50.882;4.376;2023-05-27T10:24:13;15.57;;;5.65;;
37983;SDS011;64625;50.882;4.376;2023-05-27T10:26:41;23.08;;;6.13;;
37983;SDS011;64625;50.882;4.376;2023-05-27T10:29:09;19.67;;;5.95;;
37983;SDS011;64625;50.882;4.376;2023-05-27T10:31:58;28.83;;;5.75;;
37983;SDS011;64625;50.882;4.376;2023-05-27T10:34:33;22.02;;;8.18;;
37983;SDS011;64625;50.882;4.376;2023-05-27T10:37:00;20.23;;;6.25;;
37983;SDS011;64625;50.882;4.376;2023-05-27T10:39:27;15.75;;;5.32;;
37983;SDS011;64625;50.882;4.376;2023-05-27T10:41:53;23.38;;;5.30;;
37983;SDS011;64625;50.882;4.376;2023-05-27T10:44:31;20.70;;;5.82;;
37983;SDS011;64625;50.882;4.376;2023-05-27T10:47:11;25.70;;;5.63;;
37983;SDS011;64625;50.882;4.376;2023-05-27T10:49:50;20.90;;;6.10;;
37983;SDS011;64625;50.882;4.376;2023-05-27T10:52:16;20.85;;;5.95;;
37983;SDS011;64625;50.882;4.376;2023-05-27T10:54:44;20.90;;;5.57;;
37983;SDS011;64625;50.882;4.376;2023-05-27T10:57:12;23.80;;;5.07;;
37983;SDS011;64625;50.882;4.376;2023-05-27T10:59:48;19.52;;;6.03;;
37983;SDS011;64625;50.882;4.376;2023-05-27T11:02:16;19.80;;;6.10;;
37983;SDS011;64625;50.882;4.376;2023-05-27T11:04:44;24.40;;;7.45;;
37983;SDS011;64625;50.882;4.376;2023-05-27T11:07:10;17.90;;;5.50;;
37983;SDS011;64625;50.882;4.376;2023-05-27T11:12:18;14.55;;;4.72;;
37983;SDS011;64625;50.882;4.376;2023-05-27T11:14:46;14.52;;;4.88;;
37983;SDS011;64625;50.882;4.376;2023-05-27T11:17:17;24.30;;;5.38;;
37983;SDS011;64625;50.882;4.376;2023-05-27T11:19:44;20.73;;;5.93;;
37983;SDS011;64625;50.882;4.376;2023-05-27T11:22:11;32.47;;;5.18;;
37983;SDS011;64625;50.882;4.376;2023-05-27T11:24:39;15.95;;;5.15;;
37983;SDS011;64625;50.882;4.376;2023-05-27T11:27:12;17.35;;;6.22;;
37983;SDS011;64625;50.882;4.376;2023-05-27T11:29:47;13.75;;;5.38;;
37983;SDS011;64625;50.882;4.376;2023-05-27T11:32:18;18.88;;;6.13;;
37983;SDS011;64625;50.882;4.376;2023-05-27T11:34:46;16.35;;;4.93;;
37983;SDS011;64625;50.882;4.376;2023-05-27T11:37:13;18.42;;;5.20;;
37983;SDS011;64625;50.882;4.376;2023-05-27T11:39:52;23.27;;;4.75;;
37983;SDS011;64625;50.882;4.376;2023-05-27T11:42:22;16.35;;;4.97;;
37983;SDS011;64625;50.882;4.376;2023-05-27T11:44:55;18.17;;;4.57;;
37983;SDS011;64625;50.882;4.376;2023-05-27T11:47:24;14.43;;;4.43;;
37983;SDS011;64625;50.882;4.376;2023-05-27T11:49:50;19.55;;;3.78;;
37983;SDS011;64625;50.882;4.376;2023-05-27T11:52:17;21.67;;;5.07;;
37983;SDS011;64625;50.882;4.376;2023-05-27T11:54:43;18.75;;;5.07;;
37983;SDS011;64625;50.882;4.376;2023-05-27T11:57:14;18.40;;;5.88;;
37983;SDS011;64625;50.882;4.376;2023-05-27T11:59:40;19.42;;;4.70;;
37983;SDS011;64625;50.882;4.376;2023-05-27T12:02:07;23.58;;;4.70;;
37983;SDS011;64625;50.882;4.376;2023-05-27T12:04:33;22.00;;;5.43;;
37983;SDS011;64625;50.882;4.376;2023-05-27T12:07:00;19.13;;;5.05;;
37983;SDS011;64625;50.882;4.376;2023-05-27T12:09:27;18.75;;;4.18;;
37983;SDS011;64625;50.882;4.376;2023-05-27T12:11:54;17.30;;;4.78;;
37983;SDS011;64625;50.882;4.376;2023-05-27T12:14:20;15.88;;;5.05;;
37983;SDS011;64625;50.882;4.376;2023-05-27T12:16:48;19.33;;;5.35;;
37983;SDS011;64625;50.882;4.376;2023-05-27T12:19:14;21.30;;;5.45;;
37983;SDS011;64625;50.882;4.376;2023-05-27T12:21:40;21.10;;;5.63;;
37983;SDS011;64625;50.882;4.376;2023-05-27T12:24:06;11.70;;;4.05;;
37983;SDS011;64625;50.882;4.376;2023-05-27T12:26:33;21.08;;;8.20;;
37983;SDS011;64625;50.882;4.376;2023-05-27T12:28:59;16.42;;;4.97;;
37983;SDS011;64625;50.882;4.376;2023-05-27T12:31:25;16.65;;;6.15;;
37983;SDS011;64625;50.882;4.376;2023-05-27T12:33:51;18.42;;;6.28;;
37983;SDS011;64625;50.882;4.376;2023-05-27T12:36:17;23.98;;;6.82;;
37983;SDS011;64625;50.882;4.376;2023-05-27T12:38:44;15.57;;;4.35;;
37983;SDS011;64625;50.882;4.376;2023-05-27T12:41:10;14.48;;;4.45;;
37983;SDS011;64625;50.882;4.376;2023-05-27T12:43:37;18.55;;;5.22;;
37983;SDS011;64625;50.882;4.376;2023-05-27T12:46:03;18.80;;;5.57;;
37983;SDS011;64625;50.882;4.376;2023-05-27T12:48:29;21.00;;;4.97;;
37983;SDS011;64625;50.882;4.376;2023-05-27T12:50:55;16.27;;;5.03;;
37983;SDS011;64625;50.882;4.376;2023-05-27T12:53:22;13.75;;;4.38;;
37983;SDS011;64625;50.882;4.376;2023-05-27T12:55:49;18.17;;;4.93;;
37983;SDS011;64625;50.882;4.376;2023-05-27T12:58:15;11.98;;;4.18;;
37983;SDS011;64625;50.882;4.376;2023-05-27T13:00:41;20.65;;;5.55;;
37983;SDS011;64625;50.882;4.376;2023-05-27T13:03:09;22.38;;;5.88;;
37983;SDS011;64625;50.882;4.376;2023-05-27T13:05:35;20.45;;;5.20;;
37983;SDS011;64625;50.882;4.376;2023-05-27T13:08:02;14.55;;;4.13;;
37983;SDS011;64625;50.882;4.376;2023-05-27T13:10:32;14.00;;;3.65;;
37983;SDS011;64625;50.882;4.376;2023-05-27T13:12:59;30.60;;;5.93;;
37983;SDS011;64625;50.882;4.376;2023-05-27T13:15:26;13.50;;;4.82;;
37983;SDS011;64625;50.882;4.376;2023-05-27T13:17:52;21.42;;;4.75;;
37983;SDS011;64625;50.882;4.376;2023-05-27T13:20:20;26.40;;;5.05;;
37983;SDS011;64625;50.882;4.376;2023-05-27T13:22:48;22.88;;;5.05;;
37983;SDS011;64625;50.882;4.376;2023-05-27T13:25:16;14.50;;;4.90;;
37983;SDS011;64625;50.882;4.376;2023-05-27T13:27:43;26.52;;;5.13;;
37983;SDS011;64625;50.882;4.376;2023-05-27T13:30:15;17.83;;;4.28;;
37983;SDS011;64625;50.882;4.376;2023-05-27T13:32:42;13.27;;;4.03;;
37983;SDS011;64625;50.882;4.376;2023-05-27T13:35:09;10.25;;;4.30;;
37983;SDS011;64625;50.882;4.376;2023-05-27T13:37:39;12.63;;;5.00;;
37983;SDS011;64625;50.882;4.376;2023-05-27T13:40:10;11.70;;;3.60;;
37983;SDS011;64625;50.882;4.376;2023-05-27T13:42:36;18.77;;;4.65;;
37983;SDS011;64625;50.882;4.376;2023-05-27T13:45:02;11.98;;;4.00;;
37983;SDS011;64625;50.882;4.376;2023-05-27T13:47:29;15.45;;;4.70;;
37983;SDS011;64625;50.882;4.376;2023-05-27T13:49:55;14.40;;;4.13;;
37983;SDS011;64625;50.882;4.376;2023-05-27T13:52:21;20.67;;;5.28;;
37983;SDS011;64625;50.882;4.376;2023-05-27T13:54:47;14.77;;;3.97;;
37983;SDS011;64625;50.882;4.376;2023-05-27T13:57:13;18.50;;;4.00;;
37983;SDS011;64625;50.882;4.376;2023-05-27T13:59:40;14.60;;;4.20;;
37983;SDS011;64625;50.882;4.376;2023-05-27T14:02:06;13.38;;;5.25;;
37983;SDS011;64625;50.882;4.376;2023-05-27T14:04:34;20.15;;;7.25;;
37983;SDS011;64625;50.882;4.376;2023-05-27T14:07:00;15.25;;;3.38;;
37983;SDS011;64625;50.882;4.376;2023-05-27T14:09:26;12.48;;;4.15;;
37983;SDS011;64625;50.882;4.376;2023-05-27T14:11:53;24.33;;;4.40;;
37983;SDS011;64625;50.882;4.376;2023-05-27T14:14:20;19.27;;;4.80;;
37983;SDS011;64625;50.882;4.376;2023-05-27T14:16:46;11.90;;;3.63;;
37983;SDS011;64625;50.882;4.376;2023-05-27T14:19:12;13.13;;;4.25;;
37983;SDS011;64625;50.882;4.376;2023-05-27T14:21:39;15.00;;;4.65;;
37983;SDS011;64625;50.882;4.376;2023-05-27T14:24:06;14.05;;;4.25;;
37983;SDS011;64625;50.882;4.376;2023-05-27T14:26:32;14.20;;;4.18;;
37983;SDS011;64625;50.882;4.376;2023-05-27T14:28:58;25.73;;;4.05;;
37983;SDS011;64625;50.882;4.376;2023-05-27T14:31:24;18.85;;;4.55;;
37983;SDS011;64625;50.882;4.376;2023-05-27T14:33:50;12.93;;;3.78;;
37983;SDS011;64625;50.882;4.376;2023-05-27T14:36:16;17.77;;;4.20;;
37983;SDS011;64625;50.882;4.376;2023-05-27T14:38:42;12.05;;;3.58;;
37983;SDS011;64625;50.882;4.376;2023-05-27T14:41:09;13.18;;;4.05;;